This is the latest recevied weather packets stored in our database for station/object KC2GYU. If no packets are shown the sender has not sent any weather packets the latest 10 day(s).
| Time | Temp. | Humidity | Pressure | Rain* | Wind** | Luminosity | Snow |
|---|---|---|---|---|---|---|---|
| 1778326975 | 16.11° C | 87% | 1013.7 hPa | 0 mm | - | 155 W/m² | - |
| 1778326674 | 15.56° C | 88% | 1013.8 hPa | 0 mm | - | 156 W/m² | - |
| 1778326370 | 14.44° C | 92% | 1013.8 hPa | 0 mm | - | 111 W/m² | - |
| 1778326067 | 14.44° C | 92% | 1013.9 hPa | 0 mm | - | 111 W/m² | - |
| 1778325764 | 14.44° C | 92% | 1013.8 hPa | 0 mm | - | 101 W/m² | - |
| 1778325158 | 13.33° C | 95% | 1014.1 hPa | 0 mm | - | 44 W/m² | - |
| 1778324855 | 13.33° C | 95% | 1014.3 hPa | 0 mm | - | 44 W/m² | - |
| 1778324552 | 13.33° C | 95% | 1014 hPa | 0 mm | - | 43 W/m² | - |
| 1778322131 | 12.78° C | 94% | 1014 hPa | 0 mm | - | 7 W/m² | - |
| 1778321827 | 12.78° C | 94% | 1013.9 hPa | 0 mm | - | 7 W/m² | - |
| 1778321524 | 12.78° C | 94% | 1013.6 hPa | 0 mm | - | 7 W/m² | - |
| 1778321221 | 12.78° C | 94% | 1013.8 hPa | 0 mm | - | 5 W/m² | - |
| 1778320918 | 12.78° C | 94% | 1013.6 hPa | 0 mm | - | 1 W/m² | - |
| 1778320313 | 12.78° C | 94% | 1013.6 hPa | 0 mm | - | 0 W/m² | - |
| 1778320009 | 12.78° C | 94% | 1013.5 hPa | 0 mm | - | 0 W/m² | - |
| 1778319706 | 12.78° C | 94% | 1013.8 hPa | 0 mm | - | 0 W/m² | - |
| 1778319404 | 12.78° C | 93% | 1013.6 hPa | 0 mm | - | 0 W/m² | - |
| 1778319101 | 12.78° C | 93% | 1013.8 hPa | 0 mm | - | 0 W/m² | - |
| 1778318195 | 12.78° C | 92% | 1013.7 hPa | 0 mm | - | 0 W/m² | - |
| 1778317891 | 12.78° C | 92% | 1013.5 hPa | 0 mm | - | 0 W/m² | - |
| 1778317589 | 12.78° C | 92% | 1013.6 hPa | 0 mm | - | 0 W/m² | - |
| 1778317286 | 12.22° C | 92% | 1013.9 hPa | 0 mm | - | 0 W/m² | - |
| 1778315771 | 12.78° C | 90% | 1013.8 hPa | 0 mm | - | 0 W/m² | - |
| 1778315467 | 12.78° C | 90% | 1013.8 hPa | 0 mm | - | 0 W/m² | - |
| 1778315165 | 12.78° C | 90% | 1013.7 hPa | 0 mm | - | 0 W/m² | - |
* Rain latest hour (hover to see other rain measurements)
** Current wind speed in m/s (hover to see current wind gust speed)